sensor_id;sensor_type;location;lat;lon;timestamp;P1;durP1;ratioP1;P2;durP2;ratioP2
32196;SDS011;18697;42.770;23.400;2023-03-01T00:02:02;8.00;;;4.22;;
32196;SDS011;18697;42.770;23.400;2023-03-01T00:04:29;8.55;;;4.22;;
32196;SDS011;18697;42.770;23.400;2023-03-01T00:06:54;6.55;;;4.20;;
32196;SDS011;18697;42.770;23.400;2023-03-01T00:09:20;7.57;;;3.47;;
32196;SDS011;18697;42.770;23.400;2023-03-01T00:11:45;4.38;;;2.45;;
32196;SDS011;18697;42.770;23.400;2023-03-01T00:14:11;3.50;;;2.30;;
32196;SDS011;18697;42.770;23.400;2023-03-01T00:16:41;1.88;;;1.70;;
32196;SDS011;18697;42.770;23.400;2023-03-01T00:19:08;8.43;;;4.85;;
32196;SDS011;18697;42.770;23.400;2023-03-01T00:21:37;2.65;;;2.33;;
32196;SDS011;18697;42.770;23.400;2023-03-01T00:24:02;1.45;;;1.35;;
32196;SDS011;18697;42.770;23.400;2023-03-01T00:26:28;1.85;;;1.75;;
32196;SDS011;18697;42.770;23.400;2023-03-01T00:28:54;2.40;;;1.92;;
32196;SDS011;18697;42.770;23.400;2023-03-01T00:31:24;2.15;;;1.73;;
32196;SDS011;18697;42.770;23.400;2023-03-01T00:33:54;2.35;;;2.05;;
32196;SDS011;18697;42.770;23.400;2023-03-01T00:36:28;3.40;;;2.05;;
32196;SDS011;18697;42.770;23.400;2023-03-01T00:38:55;2.83;;;2.15;;
32196;SDS011;18697;42.770;23.400;2023-03-01T00:41:22;3.53;;;1.92;;
32196;SDS011;18697;42.770;23.400;2023-03-01T00:43:49;2.25;;;1.95;;
32196;SDS011;18697;42.770;23.400;2023-03-01T00:46:16;7.53;;;4.63;;
32196;SDS011;18697;42.770;23.400;2023-03-01T00:48:44;9.32;;;4.50;;
32196;SDS011;18697;42.770;23.400;2023-03-01T00:51:11;5.95;;;4.25;;
32196;SDS011;18697;42.770;23.400;2023-03-01T00:53:38;4.72;;;3.67;;
32196;SDS011;18697;42.770;23.400;2023-03-01T00:56:05;6.35;;;4.25;;
32196;SDS011;18697;42.770;23.400;2023-03-01T00:58:32;4.88;;;3.40;;
32196;SDS011;18697;42.770;23.400;2023-03-01T01:00:58;7.80;;;4.00;;
32196;SDS011;18697;42.770;23.400;2023-03-01T01:03:23;5.82;;;3.90;;
32196;SDS011;18697;42.770;23.400;2023-03-01T01:05:50;3.78;;;3.20;;
32196;SDS011;18697;42.770;23.400;2023-03-01T01:08:16;4.10;;;3.22;;
32196;SDS011;18697;42.770;23.400;2023-03-01T01:10:43;3.17;;;2.88;;
32196;SDS011;18697;42.770;23.400;2023-03-01T01:13:09;2.45;;;2.22;;
32196;SDS011;18697;42.770;23.400;2023-03-01T01:15:34;2.53;;;2.33;;
32196;SDS011;18697;42.770;23.400;2023-03-01T01:18:00;3.45;;;2.65;;
32196;SDS011;18697;42.770;23.400;2023-03-01T01:20:26;3.35;;;2.72;;
32196;SDS011;18697;42.770;23.400;2023-03-01T01:22:51;3.28;;;2.97;;
32196;SDS011;18697;42.770;23.400;2023-03-01T01:25:17;2.50;;;2.30;;
32196;SDS011;18697;42.770;23.400;2023-03-01T01:27:42;2.50;;;2.30;;
32196;SDS011;18697;42.770;23.400;2023-03-01T01:30:08;2.47;;;2.25;;
32196;SDS011;18697;42.770;23.400;2023-03-01T01:32:34;2.83;;;2.63;;
32196;SDS011;18697;42.770;23.400;2023-03-01T01:34:59;2.47;;;2.28;;
32196;SDS011;18697;42.770;23.400;2023-03-01T01:37:24;2.88;;;2.58;;
32196;SDS011;18697;42.770;23.400;2023-03-01T01:39:56;1.80;;;1.70;;
32196;SDS011;18697;42.770;23.400;2023-03-01T01:42:24;1.67;;;1.58;;
32196;SDS011;18697;42.770;23.400;2023-03-01T01:47:50;2.97;;;2.08;;
32196;SDS011;18697;42.770;23.400;2023-03-01T01:50:17;3.72;;;2.33;;
32196;SDS011;18697;42.770;23.400;2023-03-01T01:52:43;2.30;;;2.10;;
32196;SDS011;18697;42.770;23.400;2023-03-01T01:55:12;3.75;;;2.20;;
32196;SDS011;18697;42.770;23.400;2023-03-01T01:57:45;2.67;;;1.92;;
32196;SDS011;18697;42.770;23.400;2023-03-01T02:00:16;3.70;;;2.35;;
32196;SDS011;18697;42.770;23.400;2023-03-01T02:02:44;3.30;;;2.53;;
32196;SDS011;18697;42.770;23.400;2023-03-01T02:05:19;1.73;;;1.33;;
32196;SDS011;18697;42.770;23.400;2023-03-01T02:07:49;2.45;;;2.03;;
32196;SDS011;18697;42.770;23.400;2023-03-01T02:10:16;5.43;;;2.70;;
32196;SDS011;18697;42.770;23.400;2023-03-01T02:12:41;12.40;;;6.88;;
32196;SDS011;18697;42.770;23.400;2023-03-01T02:15:07;3.53;;;2.47;;
32196;SDS011;18697;42.770;23.400;2023-03-01T02:17:33;4.07;;;2.10;;
32196;SDS011;18697;42.770;23.400;2023-03-01T02:20:07;2.10;;;1.60;;
32196;SDS011;18697;42.770;23.400;2023-03-01T02:22:51;1.33;;;1.23;;
32196;SDS011;18697;42.770;23.400;2023-03-01T02:25:27;1.48;;;1.38;;
32196;SDS011;18697;42.770;23.400;2023-03-01T02:28:10;1.23;;;1.13;;
32196;SDS011;18697;42.770;23.400;2023-03-01T02:30:43;0.90;;;0.90;;
32196;SDS011;18697;42.770;23.400;2023-03-01T02:33:31;0.90;;;0.90;;
32196;SDS011;18697;42.770;23.400;2023-03-01T02:36:01;1.23;;;1.13;;
32196;SDS011;18697;42.770;23.400;2023-03-01T02:38:31;1.83;;;1.00;;
32196;SDS011;18697;42.770;23.400;2023-03-01T02:40:57;1.00;;;1.00;;
32196;SDS011;18697;42.770;23.400;2023-03-01T02:43:23;0.82;;;0.82;;
32196;SDS011;18697;42.770;23.400;2023-03-01T02:45:56;0.80;;;0.80;;
32196;SDS011;18697;42.770;23.400;2023-03-01T02:48:23;0.85;;;0.85;;
32196;SDS011;18697;42.770;23.400;2023-03-01T02:50:55;1.85;;;1.13;;
32196;SDS011;18697;42.770;23.400;2023-03-01T02:53:30;1.40;;;1.30;;
32196;SDS011;18697;42.770;23.400;2023-03-01T02:56:21;1.95;;;1.13;;
32196;SDS011;18697;42.770;23.400;2023-03-01T02:58:46;1.45;;;1.30;;
32196;SDS011;18697;42.770;23.400;2023-03-01T03:01:16;2.47;;;1.30;;
32196;SDS011;18697;42.770;23.400;2023-03-01T03:03:42;2.75;;;1.38;;
32196;SDS011;18697;42.770;23.400;2023-03-01T03:06:08;2.67;;;1.88;;
32196;SDS011;18697;42.770;23.400;2023-03-01T03:08:34;3.20;;;2.45;;
32196;SDS011;18697;42.770;23.400;2023-03-01T03:10:59;6.22;;;3.53;;
32196;SDS011;18697;42.770;23.400;2023-03-01T03:13:25;4.28;;;1.67;;
32196;SDS011;18697;42.770;23.400;2023-03-01T03:15:53;3.97;;;1.25;;
32196;SDS011;18697;42.770;23.400;2023-03-01T03:18:20;2.17;;;1.20;;
32196;SDS011;18697;42.770;23.400;2023-03-01T03:20:46;1.13;;;1.02;;
32196;SDS011;18697;42.770;23.400;2023-03-01T03:23:12;1.50;;;1.20;;
32196;SDS011;18697;42.770;23.400;2023-03-01T03:25:38;1.05;;;0.90;;
32196;SDS011;18697;42.770;23.400;2023-03-01T03:28:04;0.70;;;0.70;;
32196;SDS011;18697;42.770;23.400;2023-03-01T03:30:35;0.70;;;0.70;;
32196;SDS011;18697;42.770;23.400;2023-03-01T03:33:03;0.60;;;0.60;;
32196;SDS011;18697;42.770;23.400;2023-03-01T03:35:34;1.08;;;1.00;;
32196;SDS011;18697;42.770;23.400;2023-03-01T03:38:05;1.58;;;1.40;;
32196;SDS011;18697;42.770;23.400;2023-03-01T03:40:38;36.65;;;11.68;;
32196;SDS011;18697;42.770;23.400;2023-03-01T03:43:06;16.77;;;6.93;;
32196;SDS011;18697;42.770;23.400;2023-03-01T03:45:50;4.68;;;2.53;;
32196;SDS011;18697;42.770;23.400;2023-03-01T03:48:16;1.17;;;0.93;;
32196;SDS011;18697;42.770;23.400;2023-03-01T03:50:46;0.60;;;0.60;;
32196;SDS011;18697;42.770;23.400;2023-03-01T03:53:13;0.63;;;0.63;;
32196;SDS011;18697;42.770;23.400;2023-03-01T03:55:39;1.95;;;0.80;;
32196;SDS011;18697;42.770;23.400;2023-03-01T04:03:34;0.65;;;0.65;;
32196;SDS011;18697;42.770;23.400;2023-03-01T04:06:00;10.90;;;6.45;;
32196;SDS011;18697;42.770;23.400;2023-03-01T04:08:26;0.80;;;0.80;;
32196;SDS011;18697;42.770;23.400;2023-03-01T04:10:52;0.60;;;0.60;;
32196;SDS011;18697;42.770;23.400;2023-03-01T04:13:23;1.98;;;1.27;;
32196;SDS011;18697;42.770;23.400;2023-03-01T04:15:50;2.35;;;1.70;;
32196;SDS011;18697;42.770;23.400;2023-03-01T04:18:17;0.73;;;0.73;;
32196;SDS011;18697;42.770;23.400;2023-03-01T04:20:44;0.70;;;0.70;;
32196;SDS011;18697;42.770;23.400;2023-03-01T04:23:14;1.05;;;0.95;;
32196;SDS011;18697;42.770;23.400;2023-03-01T04:25:47;1.48;;;0.95;;
32196;SDS011;18697;42.770;23.400;2023-03-01T04:28:23;13.23;;;5.90;;
32196;SDS011;18697;42.770;23.400;2023-03-01T04:30:50;23.80;;;13.10;;
32196;SDS011;18697;42.770;23.400;2023-03-01T04:33:16;4.07;;;3.53;;
32196;SDS011;18697;42.770;23.400;2023-03-01T04:35:41;15.55;;;14.00;;
32196;SDS011;18697;42.770;23.400;2023-03-01T04:38:07;5.75;;;4.68;;
32196;SDS011;18697;42.770;23.400;2023-03-01T04:40:33;3.80;;;3.40;;
32196;SDS011;18697;42.770;23.400;2023-03-01T04:42:59;4.07;;;3.42;;
32196;SDS011;18697;42.770;23.400;2023-03-01T04:45:24;2.25;;;1.60;;
32196;SDS011;18697;42.770;23.400;2023-03-01T04:47:49;3.88;;;3.15;;
32196;SDS011;18697;42.770;23.400;2023-03-01T04:50:17;6.15;;;5.57;;
32196;SDS011;18697;42.770;23.400;2023-03-01T04:52:45;3.90;;;3.53;;
32196;SDS011;18697;42.770;23.400;2023-03-01T04:55:12;3.60;;;3.30;;
32196;SDS011;18697;42.770;23.400;2023-03-01T04:57:38;2.70;;;2.40;;
32196;SDS011;18697;42.770;23.400;2023-03-01T05:00:05;2.70;;;2.30;;
32196;SDS011;18697;42.770;23.400;2023-03-01T05:02:45;10.55;;;7.53;;
32196;SDS011;18697;42.770;23.400;2023-03-01T05:05:28;5.22;;;3.42;;
32196;SDS011;18697;42.770;23.400;2023-03-01T05:08:04;3.33;;;1.63;;
32196;SDS011;18697;42.770;23.400;2023-03-01T05:10:34;4.20;;;2.75;;
32196;SDS011;18697;42.770;23.400;2023-03-01T05:13:00;11.85;;;6.53;;
32196;SDS011;18697;42.770;23.400;2023-03-01T05:15:27;10.02;;;6.00;;
32196;SDS011;18697;42.770;23.400;2023-03-01T05:17:55;6.35;;;4.82;;
32196;SDS011;18697;42.770;23.400;2023-03-01T05:20:23;9.95;;;6.88;;
32196;SDS011;18697;42.770;23.400;2023-03-01T05:22:49;13.43;;;8.23;;
32196;SDS011;18697;42.770;23.400;2023-03-01T05:25:15;14.52;;;8.88;;
32196;SDS011;18697;42.770;23.400;2023-03-01T05:27:41;10.77;;;7.28;;
32196;SDS011;18697;42.770;23.400;2023-03-01T05:30:07;7.22;;;5.50;;
32196;SDS011;18697;42.770;23.400;2023-03-01T05:32:39;7.53;;;5.60;;
32196;SDS011;18697;42.770;23.400;2023-03-01T05:35:06;5.03;;;4.28;;
32196;SDS011;18697;42.770;23.400;2023-03-01T05:37:31;7.22;;;4.60;;
32196;SDS011;18697;42.770;23.400;2023-03-01T05:39:57;2.92;;;2.70;;
32196;SDS011;18697;42.770;23.400;2023-03-01T05:42:23;11.35;;;5.22;;
32196;SDS011;18697;42.770;23.400;2023-03-01T05:44:52;5.65;;;3.90;;
32196;SDS011;18697;42.770;23.400;2023-03-01T05:47:17;4.78;;;3.92;;
32196;SDS011;18697;42.770;23.400;2023-03-01T05:52:08;4.95;;;4.55;;
32196;SDS011;18697;42.770;23.400;2023-03-01T05:56:58;3.92;;;3.17;;
32196;SDS011;18697;42.770;23.400;2023-03-01T05:59:24;6.68;;;3.85;;
32196;SDS011;18697;42.770;23.400;2023-03-01T06:04:15;3.90;;;3.63;;
32196;SDS011;18697;42.770;23.400;2023-03-01T06:06:40;8.90;;;7.97;;
32196;SDS011;18697;42.770;23.400;2023-03-01T06:09:06;6.75;;;6.15;;
32196;SDS011;18697;42.770;23.400;2023-03-01T06:11:33;3.83;;;3.33;;
32196;SDS011;18697;42.770;23.400;2023-03-01T06:13:59;3.88;;;3.47;;
32196;SDS011;18697;42.770;23.400;2023-03-01T06:16:25;3.88;;;3.47;;
32196;SDS011;18697;42.770;23.400;2023-03-01T06:18:50;5.60;;;3.80;;
32196;SDS011;18697;42.770;23.400;2023-03-01T06:21:16;4.97;;;3.58;;
32196;SDS011;18697;42.770;23.400;2023-03-01T06:23:41;3.30;;;3.00;;
32196;SDS011;18697;42.770;23.400;2023-03-01T06:26:07;2.05;;;1.90;;
32196;SDS011;18697;42.770;23.400;2023-03-01T06:28:33;2.58;;;2.40;;
32196;SDS011;18697;42.770;23.400;2023-03-01T06:30:59;2.40;;;2.15;;
32196;SDS011;18697;42.770;23.400;2023-03-01T06:33:24;3.33;;;2.40;;
32196;SDS011;18697;42.770;23.400;2023-03-01T06:35:50;21.52;;;18.35;;
32196;SDS011;18697;42.770;23.400;2023-03-01T06:38:16;58.30;;;35.83;;
32196;SDS011;18697;42.770;23.400;2023-03-01T06:40:44;177.05;;;123.32;;
32196;SDS011;18697;42.770;23.400;2023-03-01T06:43:09;84.20;;;66.85;;
32196;SDS011;18697;42.770;23.400;2023-03-01T06:45:35;29.55;;;23.92;;
32196;SDS011;18697;42.770;23.400;2023-03-01T06:48:03;7.38;;;6.38;;
32196;SDS011;18697;42.770;23.400;2023-03-01T06:50:29;6.00;;;4.75;;
32196;SDS011;18697;42.770;23.400;2023-03-01T06:52:55;9.35;;;6.75;;
32196;SDS011;18697;42.770;23.400;2023-03-01T06:55:21;17.08;;;11.57;;
32196;SDS011;18697;42.770;23.400;2023-03-01T06:57:48;18.02;;;13.20;;
32196;SDS011;18697;42.770;23.400;2023-03-01T07:00:13;9.60;;;4.95;;
32196;SDS011;18697;42.770;23.400;2023-03-01T07:02:39;10.80;;;9.75;;
32196;SDS011;18697;42.770;23.400;2023-03-01T07:05:05;14.85;;;12.38;;
32196;SDS011;18697;42.770;23.400;2023-03-01T07:09:55;17.02;;;13.88;;
32196;SDS011;18697;42.770;23.400;2023-03-01T07:12:22;10.85;;;8.00;;
32196;SDS011;18697;42.770;23.400;2023-03-01T07:14:47;5.28;;;3.70;;
32196;SDS011;18697;42.770;23.400;2023-03-01T07:17:13;19.15;;;8.52;;
32196;SDS011;18697;42.770;23.400;2023-03-01T07:19:38;16.10;;;4.75;;
32196;SDS011;18697;42.770;23.400;2023-03-01T07:22:04;9.10;;;5.32;;
32196;SDS011;18697;42.770;23.400;2023-03-01T07:24:32;8.48;;;3.83;;
32196;SDS011;18697;42.770;23.400;2023-03-01T07:26:58;12.30;;;5.47;;
32196;SDS011;18697;42.770;23.400;2023-03-01T07:29:23;13.10;;;5.90;;
32196;SDS011;18697;42.770;23.400;2023-03-01T07:31:48;16.55;;;9.07;;
32196;SDS011;18697;42.770;23.400;2023-03-01T07:34:14;13.15;;;8.55;;
32196;SDS011;18697;42.770;23.400;2023-03-01T07:36:39;14.65;;;6.30;;
32196;SDS011;18697;42.770;23.400;2023-03-01T07:39:07;12.23;;;5.45;;
32196;SDS011;18697;42.770;23.400;2023-03-01T07:41:34;23.27;;;16.02;;
32196;SDS011;18697;42.770;23.400;2023-03-01T07:43:59;21.10;;;12.38;;
32196;SDS011;18697;42.770;23.400;2023-03-01T07:46:24;21.80;;;14.20;;
32196;SDS011;18697;42.770;23.400;2023-03-01T07:48:50;36.95;;;21.70;;
32196;SDS011;18697;42.770;23.400;2023-03-01T07:51:15;8.48;;;5.55;;
32196;SDS011;18697;42.770;23.400;2023-03-01T07:53:40;8.38;;;3.35;;
32196;SDS011;18697;42.770;23.400;2023-03-01T07:56:07;7.18;;;4.95;;
32196;SDS011;18697;42.770;23.400;2023-03-01T07:58:35;8.48;;;2.55;;
32196;SDS011;18697;42.770;23.400;2023-03-01T08:01:05;9.93;;;4.45;;
32196;SDS011;18697;42.770;23.400;2023-03-01T08:03:32;7.32;;;4.45;;
32196;SDS011;18697;42.770;23.400;2023-03-01T08:06:05;31.45;;;21.83;;
32196;SDS011;18697;42.770;23.400;2023-03-01T08:08:32;10.80;;;5.35;;
32196;SDS011;18697;42.770;23.400;2023-03-01T08:10:59;10.15;;;7.15;;
32196;SDS011;18697;42.770;23.400;2023-03-01T08:13:25;11.45;;;5.97;;
32196;SDS011;18697;42.770;23.400;2023-03-01T08:15:51;2.83;;;2.50;;
32196;SDS011;18697;42.770;23.400;2023-03-01T08:18:17;7.90;;;3.80;;
32196;SDS011;18697;42.770;23.400;2023-03-01T08:20:44;9.52;;;3.90;;
32196;SDS011;18697;42.770;23.400;2023-03-01T08:23:09;8.85;;;4.22;;
32196;SDS011;18697;42.770;23.400;2023-03-01T08:25:35;7.43;;;3.55;;
32196;SDS011;18697;42.770;23.400;2023-03-01T08:28:01;5.15;;;4.05;;
32196;SDS011;18697;42.770;23.400;2023-03-01T08:30:26;6.95;;;3.50;;
32196;SDS011;18697;42.770;23.400;2023-03-01T08:32:52;5.63;;;4.47;;
32196;SDS011;18697;42.770;23.400;2023-03-01T08:35:18;5.72;;;4.25;;
32196;SDS011;18697;42.770;23.400;2023-03-01T08:37:44;11.32;;;7.05;;
32196;SDS011;18697;42.770;23.400;2023-03-01T08:40:10;30.60;;;14.65;;
32196;SDS011;18697;42.770;23.400;2023-03-01T08:42:38;10.95;;;6.95;;
32196;SDS011;18697;42.770;23.400;2023-03-01T08:45:04;6.38;;;5.10;;
32196;SDS011;18697;42.770;23.400;2023-03-01T08:47:30;18.55;;;14.23;;
32196;SDS011;18697;42.770;23.400;2023-03-01T08:49:58;42.33;;;22.75;;
32196;SDS011;18697;42.770;23.400;2023-03-01T08:52:23;37.67;;;14.65;;
32196;SDS011;18697;42.770;23.400;2023-03-01T08:54:49;30.55;;;12.57;;
32196;SDS011;18697;42.770;23.400;2023-03-01T08:57:14;18.95;;;7.47;;
32196;SDS011;18697;42.770;23.400;2023-03-01T08:59:40;20.13;;;7.97;;
32196;SDS011;18697;42.770;23.400;2023-03-01T09:02:16;27.50;;;9.20;;
32196;SDS011;18697;42.770;23.400;2023-03-01T09:04:42;6.13;;;3.72;;
32196;SDS011;18697;42.770;23.400;2023-03-01T09:07:09;33.70;;;13.25;;
32196;SDS011;18697;42.770;23.400;2023-03-01T09:09:35;11.02;;;5.18;;
32196;SDS011;18697;42.770;23.400;2023-03-01T09:12:01;8.65;;;4.75;;
32196;SDS011;18697;42.770;23.400;2023-03-01T09:14:27;15.57;;;7.63;;
32196;SDS011;18697;42.770;23.400;2023-03-01T09:16:53;25.45;;;8.82;;
32196;SDS011;18697;42.770;23.400;2023-03-01T09:19:18;12.98;;;6.45;;
32196;SDS011;18697;42.770;23.400;2023-03-01T09:21:43;28.83;;;10.15;;
32196;SDS011;18697;42.770;23.400;2023-03-01T09:24:17;8.25;;;4.60;;
32196;SDS011;18697;42.770;23.400;2023-03-01T09:26:44;14.60;;;6.68;;
32196;SDS011;18697;42.770;23.400;2023-03-01T09:29:12;11.00;;;5.45;;
32196;SDS011;18697;42.770;23.400;2023-03-01T09:31:39;29.65;;;15.10;;
32196;SDS011;18697;42.770;23.400;2023-03-01T09:34:04;17.17;;;8.00;;
32196;SDS011;18697;42.770;23.400;2023-03-01T09:36:30;14.98;;;9.00;;
32196;SDS011;18697;42.770;23.400;2023-03-01T09:38:57;15.18;;;7.25;;
32196;SDS011;18697;42.770;23.400;2023-03-01T09:46:43;5.50;;;3.63;;
32196;SDS011;18697;42.770;23.400;2023-03-01T09:49:11;9.70;;;5.47;;
32196;SDS011;18697;42.770;23.400;2023-03-01T09:51:41;8.18;;;6.03;;
32196;SDS011;18697;42.770;23.400;2023-03-01T09:54:08;6.55;;;3.38;;
32196;SDS011;18697;42.770;23.400;2023-03-01T09:56:47;4.32;;;2.90;;
32196;SDS011;18697;42.770;23.400;2023-03-01T09:59:23;3.97;;;3.17;;
32196;SDS011;18697;42.770;23.400;2023-03-01T10:06:56;3.72;;;3.40;;
32196;SDS011;18697;42.770;23.400;2023-03-01T10:09:30;8.68;;;4.15;;
32196;SDS011;18697;42.770;23.400;2023-03-01T10:12:00;4.10;;;2.45;;
32196;SDS011;18697;42.770;23.400;2023-03-01T10:14:30;16.95;;;10.55;;
32196;SDS011;18697;42.770;23.400;2023-03-01T10:17:04;13.98;;;8.65;;
32196;SDS011;18697;42.770;23.400;2023-03-01T10:19:45;31.15;;;18.92;;
32196;SDS011;18697;42.770;23.400;2023-03-01T10:24:46;11.02;;;7.32;;
32196;SDS011;18697;42.770;23.400;2023-03-01T10:32:36;16.83;;;9.32;;
32196;SDS011;18697;42.770;23.400;2023-03-01T10:35:14;7.15;;;4.28;;
32196;SDS011;18697;42.770;23.400;2023-03-01T10:37:52;20.30;;;13.27;;
32196;SDS011;18697;42.770;23.400;2023-03-01T10:40:32;8.73;;;3.92;;
32196;SDS011;18697;42.770;23.400;2023-03-01T10:42:59;3.70;;;2.97;;
32196;SDS011;18697;42.770;23.400;2023-03-01T10:48:02;7.72;;;4.25;;
32196;SDS011;18697;42.770;23.400;2023-03-01T10:50:28;7.05;;;4.85;;
32196;SDS011;18697;42.770;23.400;2023-03-01T10:52:58;4.78;;;3.72;;
32196;SDS011;18697;42.770;23.400;2023-03-01T10:58:20;2.72;;;2.25;;
32196;SDS011;18697;42.770;23.400;2023-03-01T11:03:27;10.85;;;6.60;;
32196;SDS011;18697;42.770;23.400;2023-03-01T11:08:33;5.55;;;4.20;;
32196;SDS011;18697;42.770;23.400;2023-03-01T11:13:52;34.70;;;9.68;;
32196;SDS011;18697;42.770;23.400;2023-03-01T11:16:45;12.18;;;5.70;;
32196;SDS011;18697;42.770;23.400;2023-03-01T11:24:34;2.88;;;1.30;;
32196;SDS011;18697;42.770;23.400;2023-03-01T11:27:07;1.60;;;1.50;;
32196;SDS011;18697;42.770;23.400;2023-03-01T11:29:48;4.10;;;1.60;;
32196;SDS011;18697;42.770;23.400;2023-03-01T11:32:33;2.30;;;2.10;;
32196;SDS011;18697;42.770;23.400;2023-03-01T11:35:10;1.65;;;1.17;;
32196;SDS011;18697;42.770;23.400;2023-03-01T11:40:15;3.47;;;2.40;;
32196;SDS011;18697;42.770;23.400;2023-03-01T11:42:50;3.20;;;1.85;;
32196;SDS011;18697;42.770;23.400;2023-03-01T11:45:19;2.50;;;1.92;;
32196;SDS011;18697;42.770;23.400;2023-03-01T11:47:58;5.70;;;2.10;;
32196;SDS011;18697;42.770;23.400;2023-03-01T11:50:50;13.05;;;7.25;;
32196;SDS011;18697;42.770;23.400;2023-03-01T11:55:55;9.93;;;4.90;;
32196;SDS011;18697;42.770;23.400;2023-03-01T12:01:32;8.25;;;4.25;;
32196;SDS011;18697;42.770;23.400;2023-03-01T12:06:57;6.97;;;4.93;;
32196;SDS011;18697;42.770;23.400;2023-03-01T12:12:04;5.18;;;3.92;;
32196;SDS011;18697;42.770;23.400;2023-03-01T12:15:38;7.72;;;3.85;;
32196;SDS011;18697;42.770;23.400;2023-03-01T12:20:42;3.38;;;2.70;;
32196;SDS011;18697;42.770;23.400;2023-03-01T12:34:41;6.20;;;3.42;;
32196;SDS011;18697;42.770;23.400;2023-03-01T12:42:31;2.60;;;2.40;;
32196;SDS011;18697;42.770;23.400;2023-03-01T12:48:02;4.43;;;3.17;;
32196;SDS011;18697;42.770;23.400;2023-03-01T12:50:59;10.35;;;5.13;;
32196;SDS011;18697;42.770;23.400;2023-03-01T12:53:30;8.73;;;4.18;;
32196;SDS011;18697;42.770;23.400;2023-03-01T12:56:07;3.75;;;2.65;;
32196;SDS011;18697;42.770;23.400;2023-03-01T13:06:35;4.97;;;3.40;;
32196;SDS011;18697;42.770;23.400;2023-03-01T13:11:53;2.83;;;2.58;;
32196;SDS011;18697;42.770;23.400;2023-03-01T13:16:50;5.07;;;3.58;;
32196;SDS011;18697;42.770;23.400;2023-03-01T13:21:45;6.03;;;3.97;;
32196;SDS011;18697;42.770;23.400;2023-03-01T13:24:25;4.78;;;2.40;;
32196;SDS011;18697;42.770;23.400;2023-03-01T13:32:45;10.13;;;6.13;;
32196;SDS011;18697;42.770;23.400;2023-03-01T13:37:39;6.40;;;2.90;;
32196;SDS011;18697;42.770;23.400;2023-03-01T13:42:53;6.90;;;4.07;;
32196;SDS011;18697;42.770;23.400;2023-03-01T13:51:01;4.55;;;2.80;;
32196;SDS011;18697;42.770;23.400;2023-03-01T13:53:30;25.80;;;9.00;;
32196;SDS011;18697;42.770;23.400;2023-03-01T13:56:00;8.93;;;5.72;;
32196;SDS011;18697;42.770;23.400;2023-03-01T14:03:21;7.28;;;4.00;;
32196;SDS011;18697;42.770;23.400;2023-03-01T14:08:33;9.13;;;3.50;;
32196;SDS011;18697;42.770;23.400;2023-03-01T14:16:52;7.32;;;4.40;;
32196;SDS011;18697;42.770;23.400;2023-03-01T14:19:23;9.27;;;4.00;;
32196;SDS011;18697;42.770;23.400;2023-03-01T14:25:21;10.75;;;5.00;;
32196;SDS011;18697;42.770;23.400;2023-03-01T14:28:31;6.82;;;3.90;;
32196;SDS011;18697;42.770;23.400;2023-03-01T14:30:44;19.33;;;7.65;;
32196;SDS011;18697;42.770;23.400;2023-03-01T14:36:25;9.57;;;6.18;;
32196;SDS011;18697;42.770;23.400;2023-03-01T14:38:50;32.70;;;11.77;;
32196;SDS011;18697;42.770;23.400;2023-03-01T14:41:19;14.20;;;7.18;;
32196;SDS011;18697;42.770;23.400;2023-03-01T14:43:49;5.63;;;4.25;;
32196;SDS011;18697;42.770;23.400;2023-03-01T14:49:04;38.92;;;17.52;;
32196;SDS011;18697;42.770;23.400;2023-03-01T14:51:37;9.90;;;5.72;;
32196;SDS011;18697;42.770;23.400;2023-03-01T14:54:26;5.93;;;3.88;;
32196;SDS011;18697;42.770;23.400;2023-03-01T14:57:00;9.88;;;4.90;;
32196;SDS011;18697;42.770;23.400;2023-03-01T14:59:26;12.35;;;5.70;;
32196;SDS011;18697;42.770;23.400;2023-03-01T15:01:53;8.82;;;5.55;;
32196;SDS011;18697;42.770;23.400;2023-03-01T15:04:21;11.85;;;6.68;;
32196;SDS011;18697;42.770;23.400;2023-03-01T15:06:50;10.32;;;5.60;;
32196;SDS011;18697;42.770;23.400;2023-03-01T15:09:16;12.43;;;5.13;;
32196;SDS011;18697;42.770;23.400;2023-03-01T15:11:42;15.10;;;7.20;;
32196;SDS011;18697;42.770;23.400;2023-03-01T15:17:03;17.63;;;8.82;;
32196;SDS011;18697;42.770;23.400;2023-03-01T15:19:29;22.60;;;8.93;;
32196;SDS011;18697;42.770;23.400;2023-03-01T15:21:54;81.38;;;37.42;;
32196;SDS011;18697;42.770;23.400;2023-03-01T15:24:24;11.27;;;8.23;;
32196;SDS011;18697;42.770;23.400;2023-03-01T15:26:59;13.98;;;9.10;;
32196;SDS011;18697;42.770;23.400;2023-03-01T15:29:31;15.40;;;9.68;;
32196;SDS011;18697;42.770;23.400;2023-03-01T15:32:04;20.42;;;9.63;;
32196;SDS011;18697;42.770;23.400;2023-03-01T15:34:32;25.08;;;12.38;;
32196;SDS011;18697;42.770;23.400;2023-03-01T15:37:02;17.23;;;7.38;;
32196;SDS011;18697;42.770;23.400;2023-03-01T15:47:40;16.40;;;12.05;;
32196;SDS011;18697;42.770;23.400;2023-03-01T15:50:18;13.02;;;10.90;;
32196;SDS011;18697;42.770;23.400;2023-03-01T15:52:54;16.02;;;7.78;;
32196;SDS011;18697;42.770;23.400;2023-03-01T15:55:22;22.25;;;15.45;;
32196;SDS011;18697;42.770;23.400;2023-03-01T15:58:03;15.70;;;8.77;;
32196;SDS011;18697;42.770;23.400;2023-03-01T16:00:31;18.30;;;8.95;;
32196;SDS011;18697;42.770;23.400;2023-03-01T16:02:57;13.85;;;8.93;;
32196;SDS011;18697;42.770;23.400;2023-03-01T16:05:24;11.80;;;7.05;;
32196;SDS011;18697;42.770;23.400;2023-03-01T16:07:51;18.65;;;8.65;;
32196;SDS011;18697;42.770;23.400;2023-03-01T16:10:18;17.20;;;10.18;;
32196;SDS011;18697;42.770;23.400;2023-03-01T16:12:44;10.32;;;7.68;;
32196;SDS011;18697;42.770;23.400;2023-03-01T16:15:28;10.43;;;8.07;;
32196;SDS011;18697;42.770;23.400;2023-03-01T16:17:56;9.10;;;6.75;;
32196;SDS011;18697;42.770;23.400;2023-03-01T16:20:23;8.02;;;4.53;;
32196;SDS011;18697;42.770;23.400;2023-03-01T16:22:49;9.48;;;5.05;;
32196;SDS011;18697;42.770;23.400;2023-03-01T16:25:15;8.60;;;4.40;;
32196;SDS011;18697;42.770;23.400;2023-03-01T16:27:42;23.50;;;10.25;;
32196;SDS011;18697;42.770;23.400;2023-03-01T16:30:09;9.70;;;6.18;;
32196;SDS011;18697;42.770;23.400;2023-03-01T16:32:42;11.25;;;6.28;;
32196;SDS011;18697;42.770;23.400;2023-03-01T16:35:09;21.63;;;8.73;;
32196;SDS011;18697;42.770;23.400;2023-03-01T16:37:36;14.85;;;8.82;;
32196;SDS011;18697;42.770;23.400;2023-03-01T16:40:03;15.48;;;9.05;;
32196;SDS011;18697;42.770;23.400;2023-03-01T16:42:36;14.70;;;8.23;;
32196;SDS011;18697;42.770;23.400;2023-03-01T16:45:02;28.08;;;12.90;;
32196;SDS011;18697;42.770;23.400;2023-03-01T16:47:28;75.47;;;28.63;;
32196;SDS011;18697;42.770;23.400;2023-03-01T16:49:54;57.03;;;25.67;;
32196;SDS011;18697;42.770;23.400;2023-03-01T16:52:21;38.38;;;16.15;;
32196;SDS011;18697;42.770;23.400;2023-03-01T16:54:47;28.08;;;13.32;;
32196;SDS011;18697;42.770;23.400;2023-03-01T16:57:13;13.80;;;7.95;;
32196;SDS011;18697;42.770;23.400;2023-03-01T16:59:39;14.38;;;7.60;;
32196;SDS011;18697;42.770;23.400;2023-03-01T17:02:05;10.35;;;6.00;;
32196;SDS011;18697;42.770;23.400;2023-03-01T17:04:33;17.95;;;9.48;;
32196;SDS011;18697;42.770;23.400;2023-03-01T17:06:58;16.92;;;8.95;;
32196;SDS011;18697;42.770;23.400;2023-03-01T17:09:23;27.65;;;14.30;;
32196;SDS011;18697;42.770;23.400;2023-03-01T17:11:49;22.05;;;11.27;;
32196;SDS011;18697;42.770;23.400;2023-03-01T17:14:17;24.27;;;12.30;;
32196;SDS011;18697;42.770;23.400;2023-03-01T17:16:43;27.30;;;12.10;;